sensor_id;sensor_type;location;lat;lon;timestamp;pressure;altitude;pressure_sealevel;temperature;humidity
10909;BME280;5507;48.548;8.720;2022-12-19T00:01:15;71123.44;;;-1.34;100.00
10909;BME280;5507;48.548;8.720;2022-12-19T00:03:45;71120.53;;;-1.36;100.00
10909;BME280;5507;48.548;8.720;2022-12-19T00:06:12;71136.38;;;-1.20;100.00
10909;BME280;5507;48.548;8.720;2022-12-19T00:08:40;71144.25;;;-1.16;100.00
10909;BME280;5507;48.548;8.720;2022-12-19T00:11:05;71141.13;;;-1.21;100.00
10909;BME280;5507;48.548;8.720;2022-12-19T00:13:31;71148.09;;;-1.15;100.00
10909;BME280;5507;48.548;8.720;2022-12-19T00:16:02;71144.84;;;-1.15;100.00
10909;BME280;5507;48.548;8.720;2022-12-19T00:18:27;71148.88;;;-1.12;100.00
10909;BME280;5507;48.548;8.720;2022-12-19T00:20:57;71167.19;;;-0.98;100.00
10909;BME280;5507;48.548;8.720;2022-12-19T00:23:23;71153.19;;;-1.06;100.00
10909;BME280;5507;48.548;8.720;2022-12-19T00:25:48;71152.94;;;-1.08;100.00
10909;BME280;5507;48.548;8.720;2022-12-19T00:28:14;71170.31;;;-0.93;100.00
10909;BME280;5507;48.548;8.720;2022-12-19T00:30:39;71174.59;;;-0.87;100.00
10909;BME280;5507;48.548;8.720;2022-12-19T00:33:04;71184.78;;;-0.80;100.00
10909;BME280;5507;48.548;8.720;2022-12-19T00:35:29;71183.06;;;-0.82;100.00
10909;BME280;5507;48.548;8.720;2022-12-19T00:37:55;71180.38;;;-0.82;100.00
10909;BME280;5507;48.548;8.720;2022-12-19T00:40:20;71180.28;;;-0.89;100.00
10909;BME280;5507;48.548;8.720;2022-12-19T00:42:46;71183.19;;;-0.86;100.00
10909;BME280;5507;48.548;8.720;2022-12-19T00:45:11;71168.78;;;-0.92;100.00
10909;BME280;5507;48.548;8.720;2022-12-19T00:47:36;71175.75;;;-0.86;100.00
10909;BME280;5507;48.548;8.720;2022-12-19T00:50:03;71186.88;;;-0.81;100.00
10909;BME280;5507;48.548;8.720;2022-12-19T00:52:28;71187.44;;;-0.80;100.00
10909;BME280;5507;48.548;8.720;2022-12-19T00:54:53;71188.97;;;-0.81;100.00
10909;BME280;5507;48.548;8.720;2022-12-19T00:57:18;71169.16;;;-0.94;100.00
10909;BME280;5507;48.548;8.720;2022-12-19T00:59:44;71173.22;;;-0.90;100.00
10909;BME280;5507;48.548;8.720;2022-12-19T01:02:09;71180.13;;;-0.84;100.00
10909;BME280;5507;48.548;8.720;2022-12-19T01:04:34;71171.91;;;-0.87;100.00
10909;BME280;5507;48.548;8.720;2022-12-19T01:07:00;71169.75;;;-0.93;100.00
10909;BME280;5507;48.548;8.720;2022-12-19T01:09:25;71167.66;;;-0.93;100.00
10909;BME280;5507;48.548;8.720;2022-12-19T01:11:50;71175.28;;;-0.91;100.00
10909;BME280;5507;48.548;8.720;2022-12-19T01:14:34;71182.81;;;-0.84;100.00
10909;BME280;5507;48.548;8.720;2022-12-19T01:17:00;71187.69;;;-0.78;100.00
10909;BME280;5507;48.548;8.720;2022-12-19T01:19:26;71195.19;;;-0.71;100.00
10909;BME280;5507;48.548;8.720;2022-12-19T01:21:52;71194.41;;;-0.74;100.00
10909;BME280;5507;48.548;8.720;2022-12-19T01:24:17;71201.56;;;-0.66;100.00
10909;BME280;5507;48.548;8.720;2022-12-19T01:26:43;71218.16;;;-0.54;100.00
10909;BME280;5507;48.548;8.720;2022-12-19T01:29:08;71219.88;;;-0.52;100.00
10909;BME280;5507;48.548;8.720;2022-12-19T01:31:33;71207.00;;;-0.59;100.00
10909;BME280;5507;48.548;8.720;2022-12-19T01:33:59;71223.94;;;-0.49;100.00
10909;BME280;5507;48.548;8.720;2022-12-19T01:36:25;71226.25;;;-0.47;100.00
10909;BME280;5507;48.548;8.720;2022-12-19T01:38:50;71220.31;;;-0.47;100.00
10909;BME280;5507;48.548;8.720;2022-12-19T01:41:15;71214.91;;;-0.54;100.00
10909;BME280;5507;48.548;8.720;2022-12-19T01:44:04;71224.38;;;-0.43;100.00
10909;BME280;5507;48.548;8.720;2022-12-19T01:46:45;71220.31;;;-0.47;100.00
10909;BME280;5507;48.548;8.720;2022-12-19T01:49:15;71227.28;;;-0.41;100.00
10909;BME280;5507;48.548;8.720;2022-12-19T01:51:46;71229.38;;;-0.41;100.00
10909;BME280;5507;48.548;8.720;2022-12-19T01:54:35;71225.31;;;-0.45;100.00
10909;BME280;5507;48.548;8.720;2022-12-19T01:57:03;71216.28;;;-0.51;100.00
10909;BME280;5507;48.548;8.720;2022-12-19T01:59:45;71205.03;;;-0.63;100.00
10909;BME280;5507;48.548;8.720;2022-12-19T02:02:27;71214.91;;;-0.54;100.00
10909;BME280;5507;48.548;8.720;2022-12-19T02:04:53;71212.22;;;-0.54;100.00
10909;BME280;5507;48.548;8.720;2022-12-19T02:07:19;71211.44;;;-0.57;100.00
10909;BME280;5507;48.548;8.720;2022-12-19T02:09:48;71210.84;;;-0.58;100.00
10909;BME280;5507;48.548;8.720;2022-12-19T02:12:16;71228.34;;;-0.47;100.00
10909;BME280;5507;48.548;8.720;2022-12-19T02:14:41;71220.31;;;-0.47;100.00
10909;BME280;5507;48.548;8.720;2022-12-19T02:17:17;71229.94;;;-0.41;100.00
10909;BME280;5507;48.548;8.720;2022-12-19T02:23:02;71236.69;;;-0.37;100.00
10909;BME280;5507;48.548;8.720;2022-12-19T02:36:02;71250.00;;;-0.26;100.00
10909;BME280;5507;48.548;8.720;2022-12-19T02:38:47;71242.69;;;-0.30;100.00
10909;BME280;5507;48.548;8.720;2022-12-19T02:41:20;71245.59;;;-0.27;100.00
10909;BME280;5507;48.548;8.720;2022-12-19T02:43:49;71258.91;;;-0.16;100.00
10909;BME280;5507;48.548;8.720;2022-12-19T02:46:16;71244.44;;;-0.28;100.00
10909;BME280;5507;48.548;8.720;2022-12-19T02:48:43;71239.81;;;-0.32;100.00
10909;BME280;5507;48.548;8.720;2022-12-19T02:51:08;71246.16;;;-0.27;100.00
10909;BME280;5507;48.548;8.720;2022-12-19T02:53:35;71256.72;;;-0.22;100.00
10909;BME280;5507;48.548;8.720;2022-12-19T02:56:33;71258.69;;;-0.18;100.00
10909;BME280;5507;48.548;8.720;2022-12-19T02:59:16;71262.75;;;-0.15;100.00
10909;BME280;5507;48.548;8.720;2022-12-19T03:04:54;71273.75;;;-0.05;100.00
10909;BME280;5507;48.548;8.720;2022-12-19T03:07:32;71265.50;;;-0.08;100.00
10909;BME280;5507;48.548;8.720;2022-12-19T03:10:23;71269.34;;;-0.07;100.00
10909;BME280;5507;48.548;8.720;2022-12-19T03:13:13;71250.44;;;-0.21;100.00
10909;BME280;5507;48.548;8.720;2022-12-19T03:15:46;71258.19;;;-0.12;100.00
10909;BME280;5507;48.548;8.720;2022-12-19T03:18:12;71260.06;;;-0.15;100.00
10909;BME280;5507;48.548;8.720;2022-12-19T03:20:49;71250.44;;;-0.21;100.00
10909;BME280;5507;48.548;8.720;2022-12-19T03:23:17;71238.28;;;-0.31;100.00
10909;BME280;5507;48.548;8.720;2022-12-19T03:25:51;71248.03;;;-0.30;100.00
10909;BME280;5507;48.548;8.720;2022-12-19T03:28:22;71265.28;;;-0.10;100.00
10909;BME280;5507;48.548;8.720;2022-12-19T03:30:52;71268.53;;;-0.10;100.00
10909;BME280;5507;48.548;8.720;2022-12-19T03:33:19;71259.94;;;-0.10;100.00
10909;BME280;5507;48.548;8.720;2022-12-19T03:35:47;71274.56;;;-0.02;100.00
10909;BME280;5507;48.548;8.720;2022-12-19T03:38:17;71266.66;;;-0.07;100.00
10909;BME280;5507;48.548;8.720;2022-12-19T03:40:44;71274.91;;;-0.04;100.00
10909;BME280;5507;48.548;8.720;2022-12-19T03:43:11;71281.28;;;0.02;100.00
10909;BME280;5507;48.548;8.720;2022-12-19T03:48:26;71287.28;;;0.09;100.00
10909;BME280;5507;48.548;8.720;2022-12-19T03:59:35;71295.41;;;0.16;100.00
10909;BME280;5507;48.548;8.720;2022-12-19T04:02:03;71295.41;;;0.16;100.00
10909;BME280;5507;48.548;8.720;2022-12-19T04:04:31;71298.09;;;0.16;100.00
10909;BME280;5507;48.548;8.720;2022-12-19T04:07:01;71299.47;;;0.20;100.00
10909;BME280;5507;48.548;8.720;2022-12-19T04:09:28;71287.53;;;0.12;100.00
10909;BME280;5507;48.548;8.720;2022-12-19T04:11:59;71289.03;;;0.11;100.00
10909;BME280;5507;48.548;8.720;2022-12-19T04:14:32;71295.63;;;0.19;100.00
10909;BME280;5507;48.548;8.720;2022-12-19T04:17:38;71304.47;;;0.22;100.00
10909;BME280;5507;48.548;8.720;2022-12-19T04:22:41;71310.47;;;0.29;100.00
10909;BME280;5507;48.548;8.720;2022-12-19T04:25:14;71323.59;;;0.38;100.00
10909;BME280;5507;48.548;8.720;2022-12-19T04:27:44;71329.00;;;0.45;100.00
10909;BME280;5507;48.548;8.720;2022-12-19T04:30:15;71329.00;;;0.45;100.00
10909;BME280;5507;48.548;8.720;2022-12-19T04:32:41;71321.84;;;0.37;100.00
10909;BME280;5507;48.548;8.720;2022-12-19T04:35:07;71321.03;;;0.34;100.00
10909;BME280;5507;48.548;8.720;2022-12-19T04:37:33;71312.00;;;0.28;100.00
10909;BME280;5507;48.548;8.720;2022-12-19T04:39:58;71313.00;;;0.34;100.00
10909;BME280;5507;48.548;8.720;2022-12-19T04:42:24;71314.75;;;0.35;100.00
10909;BME280;5507;48.548;8.720;2022-12-19T04:44:49;71297.94;;;0.21;100.00
10909;BME280;5507;48.548;8.720;2022-12-19T04:47:14;71300.19;;;0.16;100.00
10909;BME280;5507;48.548;8.720;2022-12-19T04:49:40;71308.16;;;0.27;100.00
10909;BME280;5507;48.548;8.720;2022-12-19T04:52:05;71312.44;;;0.33;100.00
10909;BME280;5507;48.548;8.720;2022-12-19T04:54:31;71321.84;;;0.37;100.00
10909;BME280;5507;48.548;8.720;2022-12-19T04:56:56;71318.00;;;0.36;100.00
10909;BME280;5507;48.548;8.720;2022-12-19T04:59:22;71318.94;;;0.34;100.00
10909;BME280;5507;48.548;8.720;2022-12-19T05:01:47;71320.09;;;0.35;100.00
10909;BME280;5507;48.548;8.720;2022-12-19T05:04:12;71325.91;;;0.40;100.00
10909;BME280;5507;48.548;8.720;2022-12-19T05:06:38;71314.31;;;0.30;100.00
10909;BME280;5507;48.548;8.720;2022-12-19T05:09:03;71321.03;;;0.34;100.00
10909;BME280;5507;48.548;8.720;2022-12-19T05:11:29;71327.06;;;0.41;100.00
10909;BME280;5507;48.548;8.720;2022-12-19T05:13:54;71333.06;;;0.49;100.00
10909;BME280;5507;48.548;8.720;2022-12-19T05:16:19;71331.56;;;0.50;100.00
10909;BME280;5507;48.548;8.720;2022-12-19T05:18:45;71336.78;;;0.55;100.00
10909;BME280;5507;48.548;8.720;2022-12-19T05:21:11;71332.50;;;0.49;100.00
10909;BME280;5507;48.548;8.720;2022-12-19T05:23:36;71342.94;;;0.58;100.00
10909;BME280;5507;48.548;8.720;2022-12-19T05:26:03;71346.63;;;0.63;100.00
10909;BME280;5507;48.548;8.720;2022-12-19T05:28:29;71351.19;;;0.60;100.00
10909;BME280;5507;48.548;8.720;2022-12-19T05:33:35;71364.75;;;0.74;100.00
10909;BME280;5507;48.548;8.720;2022-12-19T05:36:01;71358.59;;;0.71;100.00
10909;BME280;5507;48.548;8.720;2022-12-19T05:38:27;71355.53;;;0.73;100.00
10909;BME280;5507;48.548;8.720;2022-12-19T05:40:53;71361.84;;;0.72;100.00
10909;BME280;5507;48.548;8.720;2022-12-19T05:43:18;71362.63;;;0.75;100.00
10909;BME280;5507;48.548;8.720;2022-12-19T05:45:43;71364.38;;;0.76;100.00
10909;BME280;5507;48.548;8.720;2022-12-19T05:48:09;71344.47;;;0.57;100.00
10909;BME280;5507;48.548;8.720;2022-12-19T05:50:34;71352.78;;;0.66;100.00
10909;BME280;5507;48.548;8.720;2022-12-19T05:52:59;71353.56;;;0.69;100.00
10909;BME280;5507;48.548;8.720;2022-12-19T05:55:24;71360.69;;;0.71;100.00
10909;BME280;5507;48.548;8.720;2022-12-19T05:57:50;71349.91;;;0.64;100.00
10909;BME280;5507;48.548;8.720;2022-12-19T06:00:15;71347.94;;;0.60;100.00
10909;BME280;5507;48.548;8.720;2022-12-19T06:02:41;71350.47;;;0.64;100.00
10909;BME280;5507;48.548;8.720;2022-12-19T06:05:06;71344.88;;;0.62;100.00
10909;BME280;5507;48.548;8.720;2022-12-19T06:07:33;71363.56;;;0.73;100.00
10909;BME280;5507;48.548;8.720;2022-12-19T06:09:58;71365.53;;;0.77;100.00
10909;BME280;5507;48.548;8.720;2022-12-19T06:12:24;71371.13;;;0.80;100.00
10909;BME280;5507;48.548;8.720;2022-12-19T06:14:49;71371.56;;;0.85;100.00
10909;BME280;5507;48.548;8.720;2022-12-19T06:17:14;71365.75;;;0.80;100.00
10909;BME280;5507;48.548;8.720;2022-12-19T06:19:40;71363.00;;;0.73;100.00
10909;BME280;5507;48.548;8.720;2022-12-19T06:22:05;71354.53;;;0.68;100.00
10909;BME280;5507;48.548;8.720;2022-12-19T06:24:30;71368.22;;;0.77;100.00
10909;BME280;5507;48.548;8.720;2022-12-19T06:26:56;71356.84;;;0.70;100.00
10909;BME280;5507;48.548;8.720;2022-12-19T06:29:21;71355.69;;;0.69;100.00
10909;BME280;5507;48.548;8.720;2022-12-19T06:31:46;71360.91;;;0.73;100.00
10909;BME280;5507;48.548;8.720;2022-12-19T06:34:12;71350.25;;;0.62;100.00
10909;BME280;5507;48.548;8.720;2022-12-19T06:36:37;71357.41;;;0.70;100.00
10909;BME280;5507;48.548;8.720;2022-12-19T06:39:03;71363.00;;;0.73;100.00
10909;BME280;5507;48.548;8.720;2022-12-19T06:41:28;71369.03;;;0.80;100.00
10909;BME280;5507;48.548;8.720;2022-12-19T06:44:15;71383.66;;;0.88;100.00
10909;BME280;5507;48.548;8.720;2022-12-19T06:46:41;71371.34;;;0.82;100.00
10909;BME280;5507;48.548;8.720;2022-12-19T06:49:07;71371.72;;;0.80;100.00
10909;BME280;5507;48.548;8.720;2022-12-19T06:51:33;71371.34;;;0.82;100.00
10909;BME280;5507;48.548;8.720;2022-12-19T06:53:58;71355.69;;;0.69;100.00
10909;BME280;5507;48.548;8.720;2022-12-19T06:56:24;71354.53;;;0.68;100.00
10909;BME280;5507;48.548;8.720;2022-12-19T06:58:49;71352.78;;;0.66;100.00
10909;BME280;5507;48.548;8.720;2022-12-19T07:01:16;71359.75;;;0.72;100.00
10909;BME280;5507;48.548;8.720;2022-12-19T07:03:42;71365.91;;;0.75;100.00
10909;BME280;5507;48.548;8.720;2022-12-19T07:06:09;71368.22;;;0.77;100.00
10909;BME280;5507;48.548;8.720;2022-12-19T07:08:35;71371.34;;;0.82;100.00
10909;BME280;5507;48.548;8.720;2022-12-19T07:11:00;71382.34;;;0.92;100.00
10909;BME280;5507;48.548;8.720;2022-12-19T07:13:25;71384.09;;;0.93;100.00
10909;BME280;5507;48.548;8.720;2022-12-19T07:15:53;71387.59;;;0.97;100.00
10909;BME280;5507;48.548;8.720;2022-12-19T07:18:21;71381.78;;;0.91;100.00
10909;BME280;5507;48.548;8.720;2022-12-19T07:20:46;71382.34;;;0.92;100.00
10909;BME280;5507;48.548;8.720;2022-12-19T07:23:13;71378.66;;;0.86;100.00
10909;BME280;5507;48.548;8.720;2022-12-19T07:25:40;71381.78;;;0.91;100.00
10909;BME280;5507;48.548;8.720;2022-12-19T07:28:06;71384.66;;;0.94;100.00
10909;BME280;5507;48.548;8.720;2022-12-19T07:30:32;71387.94;;;0.94;100.00
10909;BME280;5507;48.548;8.720;2022-12-19T07:32:57;71381.78;;;0.91;100.00
10909;BME280;5507;48.548;8.720;2022-12-19T07:35:22;71383.28;;;0.90;100.00
10909;BME280;5507;48.548;8.720;2022-12-19T07:37:49;71389.88;;;0.99;100.00
10909;BME280;5507;48.548;8.720;2022-12-19T07:40:15;71394.53;;;1.03;100.00
10909;BME280;5507;48.548;8.720;2022-12-19T07:42:40;71409.25;;;1.18;100.00
10909;BME280;5507;48.548;8.720;2022-12-19T07:45:06;71419.81;;;1.22;100.00
10909;BME280;5507;48.548;8.720;2022-12-19T07:47:32;71413.66;;;1.19;100.00
10909;BME280;5507;48.548;8.720;2022-12-19T07:49:57;71418.75;;;1.28;100.00
10909;BME280;5507;48.548;8.720;2022-12-19T07:52:23;71413.47;;;1.17;100.00
10909;BME280;5507;48.548;8.720;2022-12-19T07:54:49;71414.25;;;1.20;100.00
10909;BME280;5507;48.548;8.720;2022-12-19T07:57:14;71427.38;;;1.29;100.00
10909;BME280;5507;48.548;8.720;2022-12-19T07:59:40;71422.75;;;1.25;100.00
10909;BME280;5507;48.548;8.720;2022-12-19T08:02:05;71413.09;;;1.19;100.00
10909;BME280;5507;48.548;8.720;2022-12-19T08:04:31;71429.09;;;1.30;100.00
10909;BME280;5507;48.548;8.720;2022-12-19T08:06:56;71445.34;;;1.45;100.00
10909;BME280;5507;48.548;8.720;2022-12-19T08:09:21;71458.69;;;1.56;100.00
10909;BME280;5507;48.548;8.720;2022-12-19T08:11:47;71473.78;;;1.69;100.00
10909;BME280;5507;48.548;8.720;2022-12-19T08:14:12;71470.53;;;1.69;100.00
10909;BME280;5507;48.548;8.720;2022-12-19T08:16:37;71481.34;;;1.76;100.00
10909;BME280;5507;48.548;8.720;2022-12-19T08:19:03;71492.13;;;1.83;100.00
10909;BME280;5507;48.548;8.720;2022-12-19T08:21:28;71495.06;;;1.85;100.00
10909;BME280;5507;48.548;8.720;2022-12-19T08:23:54;71505.13;;;1.97;100.00
10909;BME280;5507;48.548;8.720;2022-12-19T08:26:20;71518.25;;;2.06;100.00
10909;BME280;5507;48.548;8.720;2022-12-19T08:28:50;71524.50;;;2.16;100.00
10909;BME280;5507;48.548;8.720;2022-12-19T08:31:16;71538.22;;;2.25;100.00
10909;BME280;5507;48.548;8.720;2022-12-19T08:33:42;71543.78;;;2.28;100.00
10909;BME280;5507;48.548;8.720;2022-12-19T08:36:10;71558.91;;;2.41;100.00
10909;BME280;5507;48.548;8.720;2022-12-19T08:38:36;71575.59;;;2.60;100.00
10909;BME280;5507;48.548;8.720;2022-12-19T08:41:04;71587.56;;;2.68;100.00
10909;BME280;5507;48.548;8.720;2022-12-19T08:43:30;71600.34;;;2.79;100.00
10909;BME280;5507;48.548;8.720;2022-12-19T08:45:55;71602.66;;;2.81;100.00
10909;BME280;5507;48.548;8.720;2022-12-19T08:48:21;71584.88;;;2.68;100.00
10909;BME280;5507;48.548;8.720;2022-12-19T08:50:57;71608.13;;;2.89;100.00
10909;BME280;5507;48.548;8.720;2022-12-19T08:53:25;71600.34;;;2.79;100.00
10909;BME280;5507;48.548;8.720;2022-12-19T08:55:59;71610.59;;;2.86;100.00
10909;BME280;5507;48.548;8.720;2022-12-19T08:58:25;71610.59;;;2.86;100.00
10909;BME280;5507;48.548;8.720;2022-12-19T09:00:51;71619.88;;;2.94;100.00
10909;BME280;5507;48.548;8.720;2022-12-19T09:03:21;71627.28;;;3.05;100.00
10909;BME280;5507;48.548;8.720;2022-12-19T09:08:22;71591.63;;;2.72;100.00
10909;BME280;5507;48.548;8.720;2022-12-19T09:10:47;71609.50;;;2.92;100.00
10909;BME280;5507;48.548;8.720;2022-12-19T09:13:12;71630.91;;;3.04;100.00
10909;BME280;5507;48.548;8.720;2022-12-19T09:15:38;71646.41;;;3.15;100.00
10909;BME280;5507;48.548;8.720;2022-12-19T09:18:03;71656.13;;;3.28;100.00
10909;BME280;5507;48.548;8.720;2022-12-19T09:20:28;71663.09;;;3.34;100.00
10909;BME280;5507;48.548;8.720;2022-12-19T09:22:53;71682.28;;;3.51;100.00
10909;BME280;5507;48.548;8.720;2022-12-19T09:25:19;71679.34;;;3.48;100.00
10909;BME280;5507;48.548;8.720;2022-12-19T09:27:44;71701.59;;;3.63;100.00
10909;BME280;5507;48.548;8.720;2022-12-19T09:30:10;71706.69;;;3.72;100.00
10909;BME280;5507;48.548;8.720;2022-12-19T09:32:37;71708.44;;;3.73;100.00
10909;BME280;5507;48.548;8.720;2022-12-19T09:35:03;71731.69;;;3.94;100.00
10909;BME280;5507;48.548;8.720;2022-12-19T09:37:29;71732.84;;;3.95;100.00
10909;BME280;5507;48.548;8.720;2022-12-19T09:39:54;71778.19;;;4.34;100.00
10909;BME280;5507;48.548;8.720;2022-12-19T09:42:45;71847.81;;;4.92;100.00
10909;BME280;5507;48.548;8.720;2022-12-19T09:47:46;71855.81;;;5.04;100.00
10909;BME280;5507;48.548;8.720;2022-12-19T09:50:34;71830.19;;;4.82;100.00
10909;BME280;5507;48.548;8.720;2022-12-19T09:53:13;71854.63;;;5.03;100.00
10909;BME280;5507;48.548;8.720;2022-12-19T09:55:40;71859.09;;;5.04;100.00
10909;BME280;5507;48.548;8.720;2022-12-19T09:58:14;71875.75;;;5.16;100.00
10909;BME280;5507;48.548;8.720;2022-12-19T10:00:45;71833.47;;;4.82;100.00
10909;BME280;5507;48.548;8.720;2022-12-19T10:03:35;71812.53;;;4.64;100.00
10909;BME280;5507;48.548;8.720;2022-12-19T10:06:18;71830.56;;;4.80;100.00
10909;BME280;5507;48.548;8.720;2022-12-19T10:08:44;71830.38;;;4.77;100.00
10909;BME280;5507;48.548;8.720;2022-12-19T10:16:25;71922.53;;;5.59;100.00
10909;BME280;5507;48.548;8.720;2022-12-19T10:19:00;71917.28;;;5.55;100.00
10909;BME280;5507;48.548;8.720;2022-12-19T10:27:12;71987.78;;;6.16;100.00
10909;BME280;5507;48.548;8.720;2022-12-19T10:29:51;71996.50;;;6.24;100.00
10909;BME280;5507;48.548;8.720;2022-12-19T10:32:37;72030.31;;;6.53;100.00
10909;BME280;5507;48.548;8.720;2022-12-19T10:35:14;72017.28;;;6.39;100.00
10909;BME280;5507;48.548;8.720;2022-12-19T10:37:49;71994.78;;;6.22;100.00
10909;BME280;5507;48.548;8.720;2022-12-19T10:40:24;72006.00;;;6.27;100.00
10909;BME280;5507;48.548;8.720;2022-12-19T10:43:30;71966.59;;;5.95;100.00
10909;BME280;5507;48.548;8.720;2022-12-19T10:46:02;71915.31;;;5.51;100.00
10909;BME280;5507;48.548;8.720;2022-12-19T10:48:35;71905.84;;;5.47;100.00
10909;BME280;5507;48.548;8.720;2022-12-19T10:51:00;71922.75;;;5.62;100.00
10909;BME280;5507;48.548;8.720;2022-12-19T10:53:27;71934.19;;;5.70;100.00
10909;BME280;5507;48.548;8.720;2022-12-19T10:55:54;71960.19;;;5.90;100.00
10909;BME280;5507;48.548;8.720;2022-12-19T10:58:25;71955.75;;;5.88;100.00
10909;BME280;5507;48.548;8.720;2022-12-19T11:01:12;71966.81;;;5.98;100.00
10909;BME280;5507;48.548;8.720;2022-12-19T11:03:41;71978.25;;;6.05;100.00
10909;BME280;5507;48.548;8.720;2022-12-19T11:09:27;72024.47;;;6.48;100.00
10909;BME280;5507;48.548;8.720;2022-12-19T11:14:27;72075.00;;;6.89;100.00
10909;BME280;5507;48.548;8.720;2022-12-19T11:16:53;72086.47;;;7.04;100.00
10909;BME280;5507;48.548;8.720;2022-12-19T11:21:49;72101.44;;;7.15;100.00
10909;BME280;5507;48.548;8.720;2022-12-19T11:24:23;72110.94;;;7.18;100.00
10909;BME280;5507;48.548;8.720;2022-12-19T11:26:51;72161.50;;;7.67;99.81
10909;BME280;5507;48.548;8.720;2022-12-19T11:29:24;72176.09;;;7.79;98.52
10909;BME280;5507;48.548;8.720;2022-12-19T11:31:58;72180.34;;;7.78;98.36
10909;BME280;5507;48.548;8.720;2022-12-19T11:34:27;72194.13;;;7.88;97.40
10909;BME280;5507;48.548;8.720;2022-12-19T11:39:44;72223.72;;;8.18;96.46
10909;BME280;5507;48.548;8.720;2022-12-19T11:42:24;72266.75;;;8.53;91.48
10909;BME280;5507;48.548;8.720;2022-12-19T11:50:26;72274.50;;;8.62;92.96
10909;BME280;5507;48.548;8.720;2022-12-19T11:58:11;72213.19;;;8.09;96.49
10909;BME280;5507;48.548;8.720;2022-12-19T12:00:47;72185.00;;;7.82;98.39
10909;BME280;5507;48.548;8.720;2022-12-19T12:03:24;72167.69;;;7.70;100.00
10909;BME280;5507;48.548;8.720;2022-12-19T12:05:54;72178.78;;;7.79;100.00
10909;BME280;5507;48.548;8.720;2022-12-19T12:14:20;72115.44;;;7.27;100.00
10909;BME280;5507;48.548;8.720;2022-12-19T12:25:17;72145.34;;;7.48;100.00
10909;BME280;5507;48.548;8.720;2022-12-19T12:28:32;72114.06;;;7.23;100.00
10909;BME280;5507;48.548;8.720;2022-12-19T12:36:42;72085.69;;;7.01;100.00
10909;BME280;5507;48.548;8.720;2022-12-19T12:39:18;72093.84;;;7.08;100.00
10909;BME280;5507;48.548;8.720;2022-12-19T12:44:30;72067.03;;;6.85;100.00
10909;BME280;5507;48.548;8.720;2022-12-19T12:47:01;72094.97;;;7.02;100.00
10909;BME280;5507;48.548;8.720;2022-12-19T12:49:41;72078.47;;;6.92;100.00
10909;BME280;5507;48.548;8.720;2022-12-19T12:52:14;72068.56;;;6.84;100.00
10909;BME280;5507;48.548;8.720;2022-12-19T12:54:43;72066.03;;;6.79;100.00
10909;BME280;5507;48.548;8.720;2022-12-19T12:57:32;72058.09;;;6.75;100.00
10909;BME280;5507;48.548;8.720;2022-12-19T13:02:50;71994.97;;;6.25;100.00
10909;BME280;5507;48.548;8.720;2022-12-19T13:05:50;71995.38;;;6.23;100.00
10909;BME280;5507;48.548;8.720;2022-12-19T13:10:57;71977.09;;;6.04;100.00
10909;BME280;5507;48.548;8.720;2022-12-19T13:13:49;71982.75;;;6.14;100.00
10909;BME280;5507;48.548;8.720;2022-12-19T13:22:19;71966.97;;;5.93;100.00
10909;BME280;5507;48.548;8.720;2022-12-19T13:24:55;71957.06;;;5.85;100.00
10909;BME280;5507;48.548;8.720;2022-12-19T13:32:26;71942.13;;;5.74;100.00
10909;BME280;5507;48.548;8.720;2022-12-19T13:34:56;71919.63;;;5.57;100.00
10909;BME280;5507;48.548;8.720;2022-12-19T13:37:45;71919.63;;;5.57;100.00
10909;BME280;5507;48.548;8.720;2022-12-19T13:45:54;71910.09;;;5.46;100.00
10909;BME280;5507;48.548;8.720;2022-12-19T13:48:33;71916.50;;;5.52;100.00
10909;BME280;5507;48.548;8.720;2022-12-19T13:51:07;71884.63;;;5.20;100.00
10909;BME280;5507;48.548;8.720;2022-12-19T13:53:33;71872.09;;;5.18;100.00
10909;BME280;5507;48.548;8.720;2022-12-19T14:01:12;71893.22;;;5.32;100.00
10909;BME280;5507;48.548;8.720;2022-12-19T14:03:41;71896.91;;;5.37;100.00
10909;BME280;5507;48.548;8.720;2022-12-19T14:06:24;71898.66;;;5.39;100.00
10909;BME280;5507;48.548;8.720;2022-12-19T14:08:52;71885.44;;;5.23;100.00
10909;BME280;5507;48.548;8.720;2022-12-19T14:11:19;71881.56;;;5.22;100.00
10909;BME280;5507;48.548;8.720;2022-12-19T14:13:51;71885.28;;;5.27;100.00
10909;BME280;5507;48.548;8.720;2022-12-19T14:16:36;71871.31;;;5.15;100.00
10909;BME280;5507;48.548;8.720;2022-12-19T14:19:02;71875.00;;;5.21;100.00
10909;BME280;5507;48.548;8.720;2022-12-19T14:21:27;71862.38;;;5.05;100.00
10909;BME280;5507;48.548;8.720;2022-12-19T14:26:35;71830.19;;;4.82;100.00
10909;BME280;5507;48.548;8.720;2022-12-19T14:29:11;71815.66;;;4.69;100.00
10909;BME280;5507;48.548;8.720;2022-12-19T14:31:38;71820.69;;;4.71;100.00
10909;BME280;5507;48.548;8.720;2022-12-19T14:34:05;71804.97;;;4.57;100.00
10909;BME280;5507;48.548;8.720;2022-12-19T14:36:33;71817.34;;;4.63;100.00
10909;BME280;5507;48.548;8.720;2022-12-19T14:39:00;71800.88;;;4.54;100.00
10909;BME280;5507;48.548;8.720;2022-12-19T14:44:16;71789.25;;;4.44;100.00
10909;BME280;5507;48.548;8.720;2022-12-19T14:46:42;71791.00;;;4.45;100.00
10909;BME280;5507;48.548;8.720;2022-12-19T14:51:49;71769.28;;;4.24;100.00
10909;BME280;5507;48.548;8.720;2022-12-19T15:01:54;71739.25;;;4.00;100.00
10909;BME280;5507;48.548;8.720;2022-12-19T15:04:23;71734.16;;;3.91;100.00
10909;BME280;5507;48.548;8.720;2022-12-19T15:06:52;71721.78;;;3.85;100.00
10909;BME280;5507;48.548;8.720;2022-12-19T15:09:18;71715.78;;;3.78;100.00
10909;BME280;5507;48.548;8.720;2022-12-19T15:11:47;71703.56;;;3.67;100.00
10909;BME280;5507;48.548;8.720;2022-12-19T15:14:44;71682.28;;;3.51;100.00
10909;BME280;5507;48.548;8.720;2022-12-19T15:17:20;71663.09;;;3.34;100.00
10909;BME280;5507;48.548;8.720;2022-12-19T15:19:47;71649.94;;;3.25;100.00
10909;BME280;5507;48.548;8.720;2022-12-19T15:22:12;71653.59;;;3.23;100.00
10909;BME280;5507;48.548;8.720;2022-12-19T15:24:38;71646.03;;;3.17;100.00
10909;BME280;5507;48.548;8.720;2022-12-19T15:27:03;71640.22;;;3.12;100.00
10909;BME280;5507;48.548;8.720;2022-12-19T15:29:29;71636.72;;;3.09;100.00
10909;BME280;5507;48.548;8.720;2022-12-19T15:31:57;71640.44;;;3.14;100.00
10909;BME280;5507;48.548;8.720;2022-12-19T15:34:25;71639.28;;;3.13;100.00
10909;BME280;5507;48.548;8.720;2022-12-19T15:36:52;71631.16;;;3.06;100.00